Search for airport 
image banner adimage banner adimage banner ad
image banner ad

44PN - Sports Complex Of Honesdale

Located in Honesdale, United States

ICAO - 44PN, IATA -

Data provided by Airmate  

General information

Coordinates: N41°33'38" W75°15'56"
Elevation is 1361 feet MSL.
Magnetic variation is -12° East
View others Airports in Pennsylvania

Operational data

Special qualification required
Current time UTC:
Current local time:
Weather at : KMSV - Sullivan County Intl ( 42 km )
METAR: KMSV 091256Z AUTO VRB06KT 10SM SCT010 07/04 A3004 RMK AO2 SLP182 T00670039
View NOTAMs / SUP AIP / TFR affecting this airport [VIEW]
Communications frequencies: [VIEW]

Runways:

Airport contact information

Address: Honesdale United States

Satellite view of 44PN